createdAt,value
2019-01-19T00:01:49.563Z,1.31
2019-01-19T00:04:39.048Z,1.30
2019-01-19T00:07:26.798Z,1.31
2019-01-19T00:10:17.643Z,1.31
2019-01-19T00:13:07.157Z,1.36
2019-01-19T00:15:49.259Z,1.43
2019-01-19T00:18:37.354Z,1.32
2019-01-19T00:21:25.289Z,1.28
2019-01-19T00:23:58.319Z,1.25
2019-01-19T00:26:56.756Z,1.24
2019-01-19T00:29:35.922Z,1.23
2019-01-19T00:32:14.864Z,1.22
2019-01-19T00:34:54.178Z,1.21
2019-01-19T00:37:27.329Z,1.19
2019-01-19T00:40:00.824Z,1.18
2019-01-19T00:42:36.895Z,1.16
2019-01-19T00:45:21.753Z,1.14
2019-01-19T00:47:57.450Z,1.14
2019-01-19T00:50:56.305Z,1.14
2019-01-19T00:53:32.527Z,1.06
2019-01-19T00:56:28.807Z,0.96
2019-01-19T00:59:01.688Z,0.93
2019-01-19T01:01:53.944Z,0.88
2019-01-19T01:04:36.187Z,0.72
2019-01-19T01:07:30.272Z,0.69
2019-01-19T01:10:03.153Z,0.67
2019-01-19T01:12:44.934Z,0.62
2019-01-19T01:15:20.754Z,0.56
2019-01-19T01:17:53.085Z,0.53
2019-01-19T01:20:53.679Z,0.43
2019-01-19T01:23:29.531Z,0.35
2019-01-19T01:26:23.621Z,0.26
2019-01-19T01:29:26.546Z,0.27
2019-01-19T01:32:05.026Z,0.35
2019-01-19T01:34:40.846Z,0.23
2019-01-19T01:37:20.044Z,0.16
2019-01-19T01:40:02.251Z,0.14
2019-01-19T01:42:47.228Z,0.00
2019-01-19T01:45:36.949Z,-0.02
2019-01-19T01:48:12.693Z,-0.05
2019-01-19T01:50:51.735Z,0.05
2019-01-19T01:53:42.560Z,0.14
2019-01-19T01:56:12.868Z,0.13
2019-01-19T01:58:48.599Z,0.13
2019-01-19T02:01:24.394Z,0.32
2019-01-19T02:04:15.303Z,0.24
2019-01-19T02:06:53.931Z,0.32
2019-01-19T02:09:48.758Z,0.26
2019-01-19T02:12:39.815Z,0.28
2019-01-19T02:15:37.251Z,0.35
2019-01-19T02:18:21.805Z,0.37
2019-01-19T02:21:11.382Z,0.34
2019-01-19T02:24:06.156Z,0.34
2019-01-19T02:26:51.285Z,0.47
2019-01-19T02:29:25.813Z,0.48
2019-01-19T02:32:10.481Z,0.47
2019-01-19T02:34:56.130Z,0.51
2019-01-19T02:37:29.299Z,0.52
2019-01-19T02:40:14.294Z,0.57
2019-01-19T02:42:50.407Z,0.56
2019-01-19T02:45:35.207Z,0.61
2019-01-19T02:48:28.219Z,0.91
2019-01-19T02:51:03.971Z,0.73
2019-01-19T02:53:51.787Z,0.66
2019-01-19T02:56:33.971Z,0.64
2019-01-19T02:59:07.172Z,0.64
2019-01-19T03:01:55.068Z,0.69
2019-01-19T03:04:44.229Z,0.67
2019-01-19T03:07:41.787Z,0.74
2019-01-19T03:10:33.545Z,0.75
2019-01-19T03:13:21.132Z,0.83
2019-01-19T03:16:06.540Z,0.89
2019-01-19T03:18:39.857Z,0.79
2019-01-19T03:21:32.655Z,0.86
2019-01-19T03:24:17.737Z,0.88
2019-01-19T03:26:53.706Z,0.84
2019-01-19T03:29:42.282Z,0.85
2019-01-19T03:32:22.499Z,0.87
2019-01-19T03:34:55.580Z,0.72
2019-01-19T03:38:03.013Z,0.73
2019-01-19T03:40:36.310Z,0.75
2019-01-19T03:43:37.384Z,0.71
2019-01-19T03:46:27.038Z,0.77
2019-01-19T03:49:22.988Z,0.78
2019-01-19T03:52:08.442Z,0.79
2019-01-19T03:54:56.733Z,0.76
2019-01-19T03:57:38.383Z,0.83
2019-01-19T04:00:20.062Z,0.79
2019-01-19T04:03:02.742Z,0.73
2019-01-19T04:05:41.555Z,0.79
2019-01-19T04:08:30.971Z,0.73
2019-01-19T04:11:15.696Z,0.72
2019-01-19T04:13:54.983Z,0.75
2019-01-19T04:16:57.117Z,0.74
2019-01-19T04:19:42.121Z,0.74
2019-01-19T04:22:15.164Z,0.77
2019-01-19T04:24:48.160Z,0.75
2019-01-19T04:27:18.219Z,0.73
2019-01-19T04:29:47.990Z,0.73
2019-01-19T04:32:17.748Z,0.78
2019-01-19T04:34:47.477Z,0.84
2019-01-19T04:37:17.618Z,0.82
2019-01-19T04:39:47.430Z,0.75
2019-01-19T04:42:17.480Z,0.80
2019-01-19T04:44:47.732Z,0.84
2019-01-19T04:47:17.690Z,0.73
2019-01-19T04:49:47.750Z,0.71
2019-01-19T04:52:17.738Z,0.73
2019-01-19T04:54:48.491Z,0.69
2019-01-19T04:57:18.381Z,0.69
2019-01-19T04:59:48.408Z,0.71
2019-01-19T05:02:18.079Z,0.69
2019-01-19T05:04:47.904Z,0.69
2019-01-19T05:07:17.789Z,0.69
2019-01-19T05:09:47.969Z,0.70
2019-01-19T05:12:17.861Z,0.63
2019-01-19T05:14:47.768Z,0.64
2019-01-19T05:17:17.656Z,0.60
2019-01-19T05:19:47.522Z,0.57
2019-01-19T05:22:17.712Z,0.57
2019-01-19T05:24:47.484Z,0.53
2019-01-19T05:27:17.254Z,0.54
2019-01-19T05:29:47.434Z,0.57
2019-01-19T05:32:17.602Z,0.50
2019-01-19T05:34:47.616Z,0.47
2019-01-19T05:37:17.585Z,0.50
2019-01-19T05:39:47.555Z,0.48
2019-01-19T05:42:20.902Z,0.48
2019-01-19T05:44:51.375Z,0.43
2019-01-19T05:47:21.423Z,0.43
2019-01-19T05:49:51.987Z,0.40
2019-01-19T05:52:22.394Z,0.38
2019-01-19T05:54:52.175Z,0.39
2019-01-19T05:57:22.033Z,0.44
2019-01-19T05:59:52.050Z,0.42
2019-01-19T06:02:23.771Z,0.39
2019-01-19T06:04:53.670Z,0.35
2019-01-19T06:07:23.594Z,0.42
2019-01-19T06:09:55.758Z,0.39
2019-01-19T06:12:25.763Z,0.42
2019-01-19T06:14:55.643Z,0.37
2019-01-19T06:17:25.980Z,0.38
2019-01-19T06:19:56.425Z,0.35
2019-01-19T06:22:26.347Z,0.34
2019-01-19T06:24:56.285Z,0.28
2019-01-19T06:27:26.256Z,0.42
2019-01-19T06:29:56.337Z,0.44
2019-01-19T06:32:26.060Z,0.33
2019-01-19T06:34:56.139Z,0.36
2019-01-19T06:37:26.220Z,0.26
2019-01-19T06:39:56.135Z,0.24
2019-01-19T06:42:25.918Z,0.30
2019-01-19T06:44:55.743Z,0.34
2019-01-19T06:47:26.014Z,0.29
2019-01-19T06:49:56.476Z,0.21
2019-01-19T06:52:26.791Z,0.25
2019-01-19T06:54:56.752Z,0.22
2019-01-19T06:57:26.984Z,0.16
2019-01-19T06:59:57.193Z,0.27
2019-01-19T07:02:27.231Z,0.29
2019-01-19T07:04:57.223Z,0.25
2019-01-19T07:07:27.244Z,0.38
2019-01-19T07:09:57.414Z,0.27
2019-01-19T07:12:27.344Z,0.14
2019-01-19T07:14:58.099Z,0.08
2019-01-19T07:17:31.186Z,0.09
2019-01-19T07:20:14.407Z,0.08
2019-01-19T07:22:44.187Z,0.12
2019-01-19T07:25:14.793Z,0.19
2019-01-19T07:27:44.579Z,0.25
2019-01-19T07:30:16.487Z,0.27
2019-01-19T07:32:47.329Z,0.23
2019-01-19T07:35:17.848Z,0.11
2019-01-19T07:37:47.571Z,0.25
2019-01-19T07:40:18.778Z,0.28
2019-01-19T07:42:50.375Z,0.11
2019-01-19T07:45:20.586Z,0.15
2019-01-19T07:47:50.421Z,0.14
2019-01-19T07:50:20.452Z,0.07
2019-01-19T07:52:50.251Z,0.09
2019-01-19T07:55:20.483Z,0.07
2019-01-19T07:57:50.382Z,0.19
2019-01-19T08:00:29.403Z,0.23
2019-01-19T08:02:59.305Z,0.18
2019-01-19T08:05:29.414Z,0.38
2019-01-19T08:07:59.564Z,0.45
2019-01-19T08:10:29.394Z,0.29
2019-01-19T08:12:59.450Z,0.29
2019-01-19T08:15:30.216Z,0.24
2019-01-19T08:18:01.057Z,0.32
2019-01-19T08:20:31.293Z,0.18
2019-01-19T08:23:01.460Z,0.28
2019-01-19T08:25:31.470Z,0.25
2019-01-19T08:28:01.450Z,0.25
2019-01-19T08:30:31.601Z,0.22
2019-01-19T08:33:01.521Z,0.32
2019-01-19T08:35:31.366Z,0.29
2019-01-19T08:38:01.446Z,0.31
2019-01-19T08:40:33.963Z,0.34
2019-01-19T08:43:06.295Z,0.27
2019-01-19T08:45:36.189Z,0.39
2019-01-19T08:48:06.091Z,0.34
2019-01-19T08:50:36.174Z,0.37
2019-01-19T08:53:06.087Z,0.47
2019-01-19T08:55:36.224Z,0.42
2019-01-19T08:58:06.135Z,0.39
2019-01-19T09:00:36.154Z,0.43
2019-01-19T09:03:06.132Z,0.50
2019-01-19T09:05:36.116Z,0.48
2019-01-19T09:08:06.028Z,0.50
2019-01-19T09:10:35.854Z,0.62
2019-01-19T09:13:05.850Z,0.43
2019-01-19T09:15:35.937Z,0.61
2019-01-19T09:18:05.714Z,0.55
2019-01-19T09:20:35.509Z,0.70
2019-01-19T09:23:12.750Z,0.59
2019-01-19T09:25:42.626Z,0.48
2019-01-19T09:28:12.987Z,0.65
2019-01-19T09:30:43.715Z,0.52
2019-01-19T09:33:13.843Z,0.71
2019-01-19T09:35:45.779Z,0.83
2019-01-19T09:38:16.299Z,0.90
2019-01-19T09:40:46.512Z,0.91
2019-01-19T09:43:16.323Z,1.00
2019-01-19T09:45:45.964Z,1.00
2019-01-19T09:48:15.896Z,1.05
2019-01-19T09:50:45.782Z,1.25
2019-01-19T09:53:15.560Z,1.38
2019-01-19T09:55:45.826Z,1.24
2019-01-19T09:58:19.929Z,1.34
2019-01-19T10:00:49.864Z,1.28
2019-01-19T10:03:19.879Z,1.43
2019-01-19T10:05:49.968Z,1.52
2019-01-19T10:08:19.763Z,1.69
2019-01-19T10:10:49.777Z,1.63
2019-01-19T10:13:19.868Z,1.62
2019-01-19T10:15:49.949Z,1.73
2019-01-19T10:18:21.237Z,1.78
2019-01-19T10:20:51.729Z,1.84
2019-01-19T10:23:21.900Z,1.89
2019-01-19T10:25:51.604Z,1.95
2019-01-19T10:28:21.709Z,2.00
2019-01-19T10:30:51.788Z,1.97
2019-01-19T10:33:21.768Z,2.10
2019-01-19T10:35:51.345Z,2.05
2019-01-19T10:38:21.025Z,2.16
2019-01-19T10:40:50.780Z,2.24
2019-01-19T10:43:21.284Z,2.25
2019-01-19T10:45:51.512Z,2.03
2019-01-19T10:48:21.508Z,2.32
2019-01-19T10:50:51.387Z,2.26
2019-01-19T10:53:21.184Z,2.18
2019-01-19T10:55:50.878Z,2.27
2019-01-19T10:58:20.663Z,2.22
2019-01-19T11:00:52.090Z,2.25
2019-01-19T11:03:21.851Z,2.12
2019-01-19T11:05:51.945Z,2.29
2019-01-19T11:08:21.944Z,2.25
2019-01-19T11:10:51.940Z,2.28
2019-01-19T11:13:21.785Z,2.26
2019-01-19T11:15:57.902Z,2.42
2019-01-19T11:18:27.704Z,2.50
2019-01-19T11:20:57.864Z,2.49
2019-01-19T11:23:27.850Z,2.36
2019-01-19T11:25:57.774Z,2.19
2019-01-19T11:28:27.980Z,2.16
2019-01-19T11:30:58.375Z,2.39
2019-01-19T11:33:28.403Z,2.50
2019-01-19T11:36:00.152Z,2.30
2019-01-19T11:38:29.880Z,2.50
2019-01-19T11:40:59.760Z,2.66
2019-01-19T11:43:29.771Z,2.61
2019-01-19T11:46:00.130Z,2.45
2019-01-19T11:48:29.823Z,2.42
2019-01-19T11:50:59.615Z,2.46
2019-01-19T11:53:29.406Z,2.34
2019-01-19T11:55:59.745Z,2.27
2019-01-19T11:58:29.561Z,2.31
2019-01-19T12:00:59.535Z,2.49
2019-01-19T12:03:31.103Z,2.38
2019-01-19T12:06:02.693Z,2.31
2019-01-19T12:08:32.671Z,2.21
2019-01-19T12:11:02.799Z,2.36
2019-01-19T12:13:32.657Z,2.35
2019-01-19T12:16:02.495Z,2.23
2019-01-19T12:18:32.240Z,2.13
2019-01-19T12:21:02.603Z,2.30
2019-01-19T12:23:32.923Z,2.27
2019-01-19T12:26:02.831Z,2.45
2019-01-19T12:28:32.791Z,2.43
2019-01-19T12:31:02.680Z,2.26
2019-01-19T12:33:34.654Z,2.39
2019-01-19T12:36:04.339Z,2.26
2019-01-19T12:38:34.695Z,2.33
2019-01-19T12:41:04.483Z,2.41
2019-01-19T12:43:34.415Z,2.42
2019-01-19T12:46:04.578Z,2.34
2019-01-19T12:48:34.624Z,2.30
2019-01-19T12:51:04.332Z,2.37
2019-01-19T12:53:34.153Z,2.36
2019-01-19T12:56:03.829Z,2.30
2019-01-19T12:58:33.902Z,2.31
2019-01-19T13:01:03.673Z,2.44
2019-01-19T13:03:35.704Z,2.35
2019-01-19T13:06:16.109Z,2.32
2019-01-19T13:08:46.850Z,2.34
2019-01-19T13:11:35.191Z,2.39
2019-01-19T13:14:05.283Z,2.36
2019-01-19T13:16:56.317Z,2.37
2019-01-19T13:19:35.383Z,2.43
2019-01-19T13:22:26.342Z,2.42
2019-01-19T13:25:08.213Z,2.36
2019-01-19T13:27:44.440Z,2.42
2019-01-19T13:30:24.988Z,2.42
2019-01-19T13:33:10.159Z,2.44
2019-01-19T13:36:01.265Z,2.36
2019-01-19T13:39:06.789Z,2.28
2019-01-19T13:42:00.581Z,2.13
2019-01-19T13:44:45.967Z,2.16
2019-01-19T13:47:41.145Z,2.17
2019-01-19T13:50:27.712Z,2.13
2019-01-19T13:53:27.110Z,2.14
2019-01-19T13:56:30.651Z,2.07
2019-01-19T13:59:19.263Z,2.06
2019-01-19T14:02:19.387Z,2.05
2019-01-19T14:05:27.018Z,2.11
2019-01-19T14:08:18.312Z,2.09
2019-01-19T14:13:46.204Z,2.28
2019-01-19T14:16:20.779Z,2.12
2019-01-19T14:19:16.425Z,1.96
2019-01-19T14:21:53.518Z,1.96
2019-01-19T14:24:53.757Z,2.00
2019-01-19T14:27:30.449Z,1.96
2019-01-19T14:30:13.453Z,2.04
2019-01-19T14:33:07.370Z,2.19
2019-01-19T14:36:09.011Z,2.12
2019-01-19T14:41:56.396Z,1.81
2019-01-19T14:44:48.547Z,1.84
2019-01-19T14:47:24.190Z,1.86
2019-01-19T14:50:06.428Z,1.71
2019-01-19T14:52:49.113Z,1.66
2019-01-19T14:55:38.688Z,1.67
2019-01-19T14:58:24.717Z,1.64
2019-01-19T15:01:01.421Z,1.61
2019-01-19T15:03:44.387Z,1.58
2019-01-19T15:06:22.623Z,1.49
2019-01-19T15:09:03.993Z,1.39
2019-01-19T15:11:55.401Z,1.46
2019-01-19T15:14:32.420Z,1.30
2019-01-19T15:17:27.489Z,1.32
2019-01-19T15:20:13.251Z,1.25
2019-01-19T15:23:04.364Z,1.14
2019-01-19T15:26:11.377Z,1.10
2019-01-19T15:28:46.303Z,1.00
2019-01-19T15:31:20.645Z,0.87
2019-01-19T15:34:13.560Z,0.71
2019-01-19T15:37:04.747Z,0.69
2019-01-19T15:39:48.010Z,0.56
2019-01-19T15:42:38.390Z,0.40
2019-01-19T15:45:18.629Z,0.29
2019-01-19T15:48:27.061Z,0.17
2019-01-19T15:51:24.637Z,0.09
2019-01-19T15:54:06.715Z,-0.02
2019-01-19T15:56:46.065Z,-0.09
2019-01-19T15:59:35.962Z,-0.18
2019-01-19T16:02:22.094Z,-0.25
2019-01-19T16:05:31.651Z,-0.30
2019-01-19T16:08:54.628Z,-0.36
2019-01-19T16:11:43.595Z,-0.41
2019-01-19T16:14:42.874Z,-0.50
2019-01-19T16:17:30.781Z,-0.56
2019-01-19T16:20:15.923Z,-0.58
2019-01-19T16:22:54.894Z,-0.63
2019-01-19T16:25:43.021Z,-0.67
2019-01-19T16:28:35.579Z,-0.71
2019-01-19T16:31:14.694Z,-0.74
2019-01-19T16:33:53.454Z,-0.79
2019-01-19T16:36:45.056Z,-0.84
2019-01-19T16:39:25.822Z,-0.89
2019-01-19T16:42:05.811Z,-0.93
2019-01-19T16:44:56.581Z,-0.97
2019-01-19T16:47:51.288Z,-1.00
2019-01-19T16:50:46.724Z,-0.98
2019-01-19T16:53:31.841Z,-0.96
2019-01-19T16:56:05.163Z,-0.97
2019-01-19T16:58:54.865Z,-1.00
2019-01-19T17:01:33.678Z,-1.02
2019-01-19T17:04:13.505Z,-1.08
2019-01-19T17:06:51.878Z,-1.09
2019-01-19T17:09:32.863Z,-1.11
2019-01-19T17:12:14.137Z,-1.16
2019-01-19T17:14:58.996Z,-1.18
2019-01-19T17:18:05.884Z,-1.20
2019-01-19T17:20:54.302Z,-1.22
2019-01-19T17:23:48.673Z,-1.26
2019-01-19T17:26:36.655Z,-1.30
2019-01-19T17:29:28.013Z,-1.32
2019-01-19T17:32:12.856Z,-1.35
2019-01-19T17:34:54.882Z,-1.37
2019-01-19T17:37:30.841Z,-1.37
2019-01-19T17:40:07.839Z,-1.39
2019-01-19T17:42:41.046Z,-1.42
2019-01-19T17:45:30.831Z,-1.45
2019-01-19T17:48:06.286Z,-1.43
2019-01-19T17:50:45.256Z,-1.40
2019-01-19T17:53:24.073Z,-1.39
2019-01-19T17:56:06.086Z,-1.47
2019-01-19T17:58:45.124Z,-1.51
2019-01-19T18:01:29.964Z,-1.55
2019-01-19T18:04:12.662Z,-1.56
2019-01-19T18:06:54.356Z,-1.55
2019-01-19T18:09:27.482Z,-1.57
2019-01-19T18:12:00.438Z,-1.62
2019-01-19T18:14:42.412Z,-1.56
2019-01-19T18:17:30.870Z,-1.51
2019-01-19T18:20:36.151Z,-1.53
2019-01-19T18:23:24.510Z,-1.61
2019-01-19T18:26:15.639Z,-1.60
2019-01-19T18:28:58.566Z,-1.66
2019-01-19T18:31:34.416Z,-1.73
2019-01-19T18:34:19.163Z,-1.76
2019-01-19T18:36:57.844Z,-1.80
2019-01-19T18:39:36.838Z,-1.80
2019-01-19T18:42:13.052Z,-1.83
2019-01-19T18:45:07.251Z,-1.83
2019-01-19T18:47:49.567Z,-1.81
2019-01-19T18:50:32.358Z,-1.83
2019-01-19T18:53:18.262Z,-1.89
2019-01-19T18:55:53.947Z,-1.94
2019-01-19T18:58:32.663Z,-1.99
2019-01-19T19:01:08.396Z,-1.95
2019-01-19T19:03:59.935Z,-2.01
2019-01-19T19:07:01.562Z,-1.96
2019-01-19T19:09:37.154Z,-2.01
2019-01-19T19:12:16.025Z,-2.05
2019-01-19T19:15:19.873Z,-2.07
2019-01-19T19:18:07.727Z,-2.03
2019-01-19T19:20:43.464Z,-2.04
2019-01-19T19:23:22.424Z,-2.03
2019-01-19T19:26:19.788Z,-2.08
2019-01-19T19:28:59.020Z,-2.09
2019-01-19T19:31:35.810Z,-2.17
2019-01-19T19:34:11.708Z,-2.14
2019-01-19T19:36:59.965Z,-2.11
2019-01-19T19:39:35.670Z,-2.12
2019-01-19T19:42:35.320Z,-2.13
2019-01-19T19:45:08.350Z,-2.18
2019-01-19T19:47:43.974Z,-2.21
2019-01-19T19:50:23.090Z,-2.18
2019-01-19T19:52:54.578Z,-2.19
2019-01-19T19:55:23.595Z,-2.16
2019-01-19T19:57:53.475Z,-2.15
2019-01-19T20:00:23.161Z,-2.14
2019-01-19T20:02:52.997Z,-2.12
2019-01-19T20:05:22.651Z,-2.09
2019-01-19T20:07:52.312Z,-2.10
2019-01-19T20:10:22.560Z,-2.03
2019-01-19T20:12:52.643Z,-2.01
2019-01-19T20:15:22.721Z,-2.04
2019-01-19T20:17:52.993Z,-2.02
2019-01-19T20:20:22.844Z,-2.03
2019-01-19T20:22:53.767Z,-2.08
2019-01-19T20:25:24.006Z,-2.12
2019-01-19T20:27:53.895Z,-2.20
2019-01-19T20:30:23.820Z,-2.28
2019-01-19T20:32:53.780Z,-2.33
2019-01-19T20:35:25.483Z,-2.40
2019-01-19T20:37:55.342Z,-2.47
2019-01-19T20:40:26.522Z,-2.57
2019-01-19T20:42:56.616Z,-2.58
2019-01-19T20:45:27.659Z,-2.60
2019-01-19T20:47:58.079Z,-2.62
2019-01-19T20:50:28.089Z,-2.62
2019-01-19T20:52:58.156Z,-2.65
2019-01-19T20:55:28.811Z,-2.68
2019-01-19T20:57:58.805Z,-2.68
2019-01-19T21:00:30.717Z,-2.70
2019-01-19T21:03:00.316Z,-2.66
2019-01-19T21:05:30.535Z,-2.66
2019-01-19T21:08:00.281Z,-2.64
2019-01-19T21:10:31.975Z,-2.62
2019-01-19T21:13:02.518Z,-2.64
2019-01-19T21:15:32.455Z,-2.70
2019-01-19T21:18:02.385Z,-2.73
2019-01-19T21:20:32.416Z,-2.78
2019-01-19T21:23:02.112Z,-2.83
2019-01-19T21:25:31.861Z,-2.83
2019-01-19T21:28:01.842Z,-2.84
2019-01-19T21:30:31.512Z,-2.87
2019-01-19T21:33:02.143Z,-2.92
2019-01-19T21:35:32.137Z,-2.93
2019-01-19T21:38:02.839Z,-2.95
2019-01-19T21:40:38.906Z,-2.98
2019-01-19T21:43:05.976Z,-2.99
2019-01-19T21:45:36.141Z,-3.02
2019-01-19T21:48:05.875Z,-3.05
2019-01-19T21:50:36.448Z,-3.11
2019-01-19T21:53:06.481Z,-3.14
2019-01-19T21:55:36.229Z,-3.16
2019-01-19T21:58:06.292Z,-3.18
2019-01-19T22:00:36.367Z,-3.18
2019-01-19T22:03:06.828Z,-3.15
2019-01-19T22:05:37.034Z,-3.14
2019-01-19T22:08:07.001Z,-3.17
2019-01-19T22:10:36.962Z,-3.18
2019-01-19T22:13:06.915Z,-3.16
2019-01-19T22:15:37.617Z,-3.18
2019-01-19T22:18:07.378Z,-3.19
2019-01-19T22:20:38.042Z,-3.20
2019-01-19T22:23:08.239Z,-3.22
2019-01-19T22:25:38.793Z,-3.24
2019-01-19T22:28:08.598Z,-3.26
2019-01-19T22:30:38.994Z,-3.29
2019-01-19T22:33:09.855Z,-3.31
2019-01-19T22:35:39.846Z,-3.30
2019-01-19T22:38:10.304Z,-3.29
2019-01-19T22:40:40.060Z,-3.34
2019-01-19T22:43:11.043Z,-3.43
2019-01-19T22:45:40.830Z,-3.48
2019-01-19T22:48:10.780Z,-3.48
2019-01-19T22:50:40.585Z,-3.47
2019-01-19T22:53:12.884Z,-3.46
2019-01-19T22:55:42.727Z,-3.49
2019-01-19T22:58:12.672Z,-3.41
2019-01-19T23:00:51.437Z,-3.43
2019-01-19T23:03:21.885Z,-3.47
2019-01-19T23:05:52.439Z,-3.48
2019-01-19T23:08:22.448Z,-3.49
2019-01-19T23:10:52.346Z,-3.51
2019-01-19T23:13:22.885Z,-3.53
2019-01-19T23:15:52.585Z,-3.55
2019-01-19T23:18:23.297Z,-3.56
2019-01-19T23:20:53.379Z,-3.64
2019-01-19T23:23:23.372Z,-3.75
2019-01-19T23:25:53.072Z,-3.83
2019-01-19T23:28:22.684Z,-3.84
2019-01-19T23:30:52.323Z,-3.79
2019-01-19T23:33:22.176Z,-3.77
2019-01-19T23:35:52.044Z,-3.77
2019-01-19T23:38:21.683Z,-3.73
2019-01-19T23:40:51.630Z,-3.73
2019-01-19T23:43:21.259Z,-3.74
2019-01-19T23:45:51.119Z,-3.74
2019-01-19T23:48:20.773Z,-3.71
2019-01-19T23:50:50.504Z,-3.67
2019-01-19T23:53:20.288Z,-3.66
2019-01-19T23:55:49.978Z,-3.68
2019-01-19T23:58:21.791Z,-3.70
